createdAt,value
2022-09-05T00:02:06.214Z,15.60
2022-09-05T00:05:10.188Z,15.49
2022-09-05T00:08:21.142Z,15.43
2022-09-05T00:11:41.853Z,15.35
2022-09-05T00:15:16.855Z,15.29
2022-09-05T00:21:17.727Z,15.27
2022-09-05T00:24:19.519Z,15.26
2022-09-05T00:25:08.575Z,15.17
2022-09-05T00:28:26.920Z,15.10
2022-09-05T00:31:54.561Z,15.05
2022-09-05T00:35:05.894Z,15.02
2022-09-05T00:37:53.174Z,14.98
2022-09-05T00:40:49.550Z,14.90
2022-09-05T00:43:54.625Z,14.87
2022-09-05T00:47:00.143Z,14.85
2022-09-05T00:50:06.558Z,14.86
2022-09-05T00:53:07.520Z,14.89
2022-09-05T00:56:13.393Z,14.91
2022-09-05T00:59:24.529Z,14.86
2022-09-05T01:03:09.277Z,14.86
2022-09-05T01:06:13.741Z,14.79
2022-09-05T01:09:12.862Z,14.80
2022-09-05T01:12:06.033Z,14.85
2022-09-05T01:15:19.404Z,14.94
2022-09-05T01:18:39.817Z,15.03
2022-09-05T01:21:48.646Z,15.06
2022-09-05T01:25:03.538Z,15.06
2022-09-05T01:29:13.850Z,15.06
2022-09-05T01:31:44.459Z,15.03
2022-09-05T01:35:01.213Z,15.03
2022-09-05T01:37:53.419Z,15.02
2022-09-05T01:41:21.123Z,15.05
2022-09-05T01:44:29.420Z,15.10
2022-09-05T01:47:39.551Z,15.13
2022-09-05T01:50:31.812Z,15.18
2022-09-05T01:53:41.453Z,15.19
2022-09-05T01:56:33.667Z,15.21
2022-09-05T01:59:38.531Z,15.15
2022-09-05T02:02:48.932Z,15.11
2022-09-05T02:06:14.152Z,15.11
2022-09-05T02:09:09.544Z,15.08
2022-09-05T02:12:17.010Z,15.05
2022-09-05T02:15:37.298Z,15.04
2022-09-05T02:18:35.849Z,15.03
2022-09-05T02:21:27.605Z,15.01
2022-09-05T02:24:24.481Z,14.97
2022-09-05T02:27:40.234Z,14.93
2022-09-05T02:30:30.499Z,14.87
2022-09-05T02:33:31.514Z,14.82
2022-09-05T02:36:22.716Z,14.78
2022-09-05T02:45:02.659Z,14.77
2022-09-05T02:45:13.551Z,14.78
2022-09-05T02:46:11.406Z,14.78
2022-09-05T02:49:26.180Z,14.77
2022-09-05T02:57:26.025Z,14.72
2022-09-05T02:58:05.566Z,14.70
2022-09-05T02:59:36.100Z,14.69
2022-09-05T03:02:39.924Z,14.69
2022-09-05T03:05:40.253Z,14.71
2022-09-05T03:08:55.918Z,14.73
2022-09-05T03:12:29.142Z,14.77
2022-09-05T03:15:44.824Z,14.78
2022-09-05T03:19:11.918Z,14.80
2022-09-05T03:22:09.712Z,14.78
2022-09-05T03:25:39.538Z,14.74
2022-09-05T03:28:50.785Z,14.72
2022-09-05T03:32:08.964Z,14.74
2022-09-05T03:35:18.712Z,14.75
2022-09-05T03:38:21.259Z,14.72
2022-09-05T03:41:40.077Z,14.71
2022-09-05T03:44:26.197Z,14.68
2022-09-05T03:47:30.213Z,14.63
2022-09-05T03:57:06.019Z,14.58
2022-09-05T03:57:14.939Z,14.55
2022-09-05T03:58:02.108Z,14.52
2022-09-05T04:02:38.789Z,14.53
2022-09-05T04:08:26.021Z,14.58
2022-09-05T04:08:33.057Z,14.64
2022-09-05T04:11:24.518Z,14.66
2022-09-05T04:14:26.104Z,14.64
2022-09-05T04:17:35.680Z,14.59
2022-09-05T04:20:46.348Z,14.56
2022-09-05T04:23:46.252Z,14.56
2022-09-05T04:26:43.072Z,14.60
2022-09-05T04:29:54.481Z,14.61
2022-09-05T04:32:59.091Z,14.61
2022-09-05T04:36:02.018Z,14.66
2022-09-05T04:39:17.484Z,14.65
2022-09-05T04:42:23.763Z,14.63
2022-09-05T04:45:22.061Z,14.59
2022-09-05T04:48:10.850Z,14.58
2022-09-05T04:51:11.564Z,14.56
2022-09-05T04:53:58.130Z,14.57
2022-09-05T04:56:49.326Z,14.61
2022-09-05T05:05:17.931Z,14.61
2022-09-05T05:06:05.029Z,14.63
2022-09-05T05:06:47.333Z,14.68
2022-09-05T05:09:39.302Z,14.72
2022-09-05T05:17:56.295Z,14.73
2022-09-05T05:18:06.170Z,14.73
2022-09-05T05:19:33.266Z,14.75
2022-09-05T05:22:18.401Z,14.80
2022-09-05T05:25:09.986Z,14.83
2022-09-05T05:28:22.758Z,14.86
2022-09-05T05:31:17.728Z,14.91
2022-09-05T05:34:24.224Z,14.97
2022-09-05T05:37:22.589Z,15.02
2022-09-05T05:40:25.090Z,15.07
2022-09-05T05:43:40.040Z,15.15
2022-09-05T05:46:34.343Z,15.26
2022-09-05T05:49:31.980Z,15.29
2022-09-05T05:53:33.532Z,15.37
2022-09-05T05:56:54.254Z,15.51
2022-09-05T05:59:56.679Z,15.60
2022-09-05T06:03:26.655Z,15.64
2022-09-05T06:06:39.579Z,15.81
2022-09-05T06:14:48.279Z,15.87
2022-09-05T06:14:57.618Z,15.97
2022-09-05T06:16:43.948Z,16.08
2022-09-05T06:22:04.257Z,16.15
2022-09-05T06:23:39.639Z,16.27
2022-09-05T06:26:28.218Z,16.40
2022-09-05T06:29:47.083Z,16.54
2022-09-05T06:32:58.422Z,16.72
2022-09-05T06:36:06.791Z,16.87
2022-09-05T06:39:04.086Z,17.05
2022-09-05T06:42:04.933Z,17.18
2022-09-05T06:45:26.972Z,17.32
2022-09-05T06:48:44.406Z,17.50
2022-09-05T06:52:04.174Z,17.80
2022-09-05T06:55:13.480Z,18.04
2022-09-05T06:58:39.205Z,18.15
2022-09-05T07:01:59.699Z,18.39
2022-09-05T07:05:37.855Z,18.56
2022-09-05T07:08:18.440Z,18.85
2022-09-05T07:11:19.682Z,19.08
2022-09-05T07:14:30.409Z,19.22
2022-09-05T07:17:24.780Z,19.29
2022-09-05T07:20:26.079Z,19.26
2022-09-05T07:24:06.385Z,19.25
2022-09-05T07:26:54.134Z,19.31
2022-09-05T07:29:49.724Z,19.22
2022-09-05T07:32:54.199Z,19.26
2022-09-05T07:35:41.667Z,19.31
2022-09-05T07:38:50.293Z,19.36
2022-09-05T07:41:39.093Z,19.45
2022-09-05T07:44:34.039Z,19.58
2022-09-05T07:47:26.144Z,19.58
2022-09-05T07:52:21.095Z,19.63
2022-09-05T07:56:54.387Z,19.80
2022-09-05T07:57:22.229Z,19.93
2022-09-05T08:00:26.010Z,20.05
2022-09-05T08:03:14.953Z,20.24
2022-09-05T08:06:13.069Z,20.41
2022-09-05T08:10:10.168Z,20.70
2022-09-05T08:13:23.058Z,20.91
2022-09-05T08:16:13.190Z,21.12
2022-09-05T08:19:29.195Z,21.15
2022-09-05T08:22:28.449Z,21.02
2022-09-05T08:25:18.048Z,21.00
2022-09-05T08:28:18.920Z,20.95
2022-09-05T08:31:11.281Z,20.98
2022-09-05T08:34:02.677Z,21.08
2022-09-05T08:36:56.396Z,21.16
2022-09-05T08:39:43.811Z,21.28
2022-09-05T08:42:52.755Z,21.49
2022-09-05T08:46:43.900Z,21.83
2022-09-05T08:49:37.906Z,22.09
2022-09-05T08:52:48.430Z,22.24
2022-09-05T08:55:53.072Z,22.31
2022-09-05T08:59:31.591Z,22.46
2022-09-05T09:02:47.702Z,22.66
2022-09-05T09:06:17.330Z,22.70
2022-09-05T09:09:41.834Z,22.72
2022-09-05T09:12:42.382Z,22.83
2022-09-05T09:15:48.654Z,23.00
2022-09-05T09:18:49.187Z,23.17
2022-09-05T09:21:46.819Z,23.17
2022-09-05T09:24:40.830Z,23.13
2022-09-05T09:28:46.825Z,23.12
2022-09-05T09:31:40.925Z,23.11
2022-09-05T09:34:26.588Z,23.01
2022-09-05T09:37:58.711Z,23.17
2022-09-05T09:41:00.939Z,23.33
2022-09-05T09:43:57.599Z,23.67
2022-09-05T09:46:45.010Z,23.90
2022-09-05T09:49:54.967Z,23.96
2022-09-05T09:53:02.002Z,23.74
2022-09-05T09:56:12.423Z,23.56
2022-09-05T09:59:17.692Z,23.49
2022-09-05T10:04:23.802Z,23.42
2022-09-05T10:10:34.596Z,23.60
2022-09-05T10:10:58.711Z,23.73
2022-09-05T10:12:22.327Z,23.88
2022-09-05T10:15:31.182Z,24.08
2022-09-05T10:18:27.073Z,24.12
2022-09-05T10:21:35.821Z,24.32
2022-09-05T10:24:34.405Z,24.51
2022-09-05T10:27:27.973Z,24.71
2022-09-05T10:31:51.393Z,24.89
2022-09-05T10:35:14.037Z,24.91
2022-09-05T10:36:54.547Z,24.63
2022-09-05T10:39:51.369Z,24.29
2022-09-05T10:42:55.525Z,24.03
2022-09-05T10:45:57.464Z,23.80
2022-09-05T10:48:53.832Z,23.71
2022-09-05T10:51:52.027Z,23.70
2022-09-05T10:54:49.537Z,23.69
2022-09-05T10:57:50.021Z,23.65
2022-09-05T11:02:25.903Z,23.53
2022-09-05T11:04:46.534Z,23.49
2022-09-05T11:08:10.809Z,23.46
2022-09-05T11:11:17.321Z,23.56
2022-09-05T11:14:48.996Z,23.72
2022-09-05T11:17:33.920Z,23.80
2022-09-05T11:20:50.132Z,23.96
2022-09-05T11:23:57.371Z,23.99
2022-09-05T11:27:23.574Z,23.98
2022-09-05T11:30:28.464Z,24.13
2022-09-05T11:39:47.121Z,24.37
2022-09-05T11:39:52.514Z,24.75
2022-09-05T11:40:29.298Z,25.11
2022-09-05T11:43:37.064Z,25.54
2022-09-05T11:46:29.471Z,25.85
2022-09-05T11:49:48.769Z,25.66
2022-09-05T11:53:32.495Z,25.45
2022-09-05T11:56:44.105Z,25.60
2022-09-05T12:00:10.690Z,25.66
2022-09-05T12:04:03.696Z,25.50
2022-09-05T12:06:31.787Z,25.24
2022-09-05T12:09:36.274Z,25.02
2022-09-05T12:12:41.094Z,24.95
2022-09-05T12:15:33.727Z,24.89
2022-09-05T12:18:43.030Z,24.71
2022-09-05T12:21:28.144Z,24.63
2022-09-05T12:25:24.908Z,24.54
2022-09-05T12:27:46.160Z,24.47
2022-09-05T12:30:41.158Z,24.58
2022-09-05T12:36:04.325Z,24.99
2022-09-05T12:40:38.378Z,25.35
2022-09-05T12:41:42.574Z,26.23
2022-09-05T12:43:44.991Z,27.19
2022-09-05T12:46:32.671Z,28.45
2022-09-05T12:49:36.157Z,29.13
2022-09-05T12:52:33.177Z,29.98
2022-09-05T12:55:25.589Z,30.80
2022-09-05T13:01:31.932Z,30.96
2022-09-05T13:03:07.540Z,31.43
2022-09-05T13:05:01.395Z,31.78
2022-09-05T13:07:57.649Z,32.45
2022-09-05T13:14:47.604Z,33.15
2022-09-05T13:15:06.064Z,33.66
2022-09-05T13:17:08.608Z,34.03
2022-09-05T13:19:58.370Z,34.53
2022-09-05T13:22:49.447Z,35.26
2022-09-05T13:25:36.606Z,36.14
2022-09-05T13:28:28.309Z,36.16
2022-09-05T13:37:54.980Z,35.53
2022-09-05T13:37:58.028Z,34.09
2022-09-05T13:38:37.785Z,32.21
2022-09-05T13:41:28.818Z,30.74
2022-09-05T13:44:27.370Z,29.43
2022-09-05T13:47:29.310Z,28.48
2022-09-05T13:50:30.654Z,27.69
2022-09-05T13:53:35.845Z,27.13
2022-09-05T13:56:30.681Z,26.63
2022-09-05T13:59:21.057Z,26.24
2022-09-05T14:03:29.899Z,25.85
2022-09-05T14:06:02.683Z,25.43
2022-09-05T14:12:37.547Z,24.83
2022-09-05T14:15:38.291Z,24.59
2022-09-05T14:18:29.623Z,24.38
2022-09-05T14:21:15.170Z,24.22
2022-09-05T14:24:13.337Z,23.91
2022-09-05T14:27:31.815Z,23.74
2022-09-05T14:32:39.864Z,23.67
2022-09-05T14:37:40.123Z,23.51
2022-09-05T14:37:51.716Z,23.49
2022-09-05T14:39:59.058Z,23.38
2022-09-05T14:42:43.680Z,23.36
2022-09-05T14:45:39.937Z,23.30
2022-09-05T14:48:30.224Z,23.37
2022-09-05T14:51:25.589Z,23.34
2022-09-05T14:58:59.684Z,23.35
2022-09-05T15:02:45.489Z,23.43
2022-09-05T15:02:51.985Z,24.14
2022-09-05T15:05:15.464Z,24.94
2022-09-05T15:07:48.355Z,26.04
2022-09-05T15:12:15.442Z,26.90
2022-09-05T15:13:13.564Z,27.61
2022-09-05T15:16:08.666Z,27.81
2022-09-05T15:18:45.277Z,27.20
2022-09-05T15:21:30.620Z,26.51
2022-09-05T15:24:15.203Z,25.90
2022-09-05T15:26:54.125Z,25.29
2022-09-05T15:29:27.822Z,25.08
2022-09-05T15:32:22.463Z,24.80
2022-09-05T15:35:01.330Z,24.40
2022-09-05T15:37:40.583Z,24.03
2022-09-05T15:40:22.101Z,23.90
2022-09-05T15:43:01.481Z,23.60
2022-09-05T15:45:34.934Z,23.46
2022-09-05T15:48:12.508Z,23.25
2022-09-05T15:50:55.157Z,23.12
2022-09-05T15:53:31.092Z,22.89
2022-09-05T15:56:15.599Z,22.78
2022-09-05T15:58:57.973Z,22.69
2022-09-05T16:01:58.502Z,22.50
2022-09-05T16:10:31.286Z,22.20
2022-09-05T16:10:43.466Z,22.18
2022-09-05T16:10:59.096Z,22.04
2022-09-05T16:13:16.702Z,21.91
2022-09-05T16:18:58.598Z,21.72
2022-09-05T16:23:13.033Z,21.65
2022-09-05T16:23:13.357Z,21.75
2022-09-05T16:24:41.566Z,21.60
2022-09-05T16:27:33.360Z,21.48
2022-09-05T16:30:01.583Z,21.43
2022-09-05T16:32:30.478Z,21.34
2022-09-05T16:35:10.308Z,21.29
2022-09-05T16:37:50.391Z,21.25
2022-09-05T16:40:35.175Z,21.21
2022-09-05T16:43:17.696Z,21.14
2022-09-05T16:46:28.184Z,21.11
2022-09-05T16:48:58.160Z,21.06
2022-09-05T16:51:55.019Z,21.05
2022-09-05T16:54:46.697Z,21.04
2022-09-05T16:57:26.271Z,21.01
2022-09-05T17:00:01.091Z,20.97
2022-09-05T17:02:43.389Z,20.95
2022-09-05T17:05:22.309Z,20.92
2022-09-05T17:07:59.646Z,20.89
2022-09-05T17:10:58.128Z,20.89
2022-09-05T17:13:48.983Z,20.88
2022-09-05T17:16:22.188Z,20.80
2022-09-05T17:18:52.080Z,20.73
2022-09-05T17:23:02.821Z,20.69
2022-09-05T17:29:16.732Z,20.66
2022-09-05T17:29:35.288Z,20.62
2022-09-05T17:33:45.066Z,20.56
2022-09-05T17:36:33.610Z,20.49
2022-09-05T17:39:14.201Z,20.39
2022-09-05T17:42:02.606Z,20.32
2022-09-05T17:44:43.173Z,20.24
2022-09-05T17:47:36.513Z,20.18
2022-09-05T17:50:15.302Z,20.13
2022-09-05T17:53:26.131Z,20.08
2022-09-05T17:55:50.403Z,20.02
2022-09-05T17:58:49.655Z,19.96
2022-09-05T18:01:26.667Z,19.88
2022-09-05T18:04:06.813Z,19.82
2022-09-05T18:06:58.936Z,19.78
2022-09-05T18:09:37.147Z,19.72
2022-09-05T18:15:22.228Z,19.53
2022-09-05T18:17:57.871Z,19.44
2022-09-05T18:20:53.542Z,19.34
2022-09-05T18:23:46.725Z,19.22
2022-09-05T18:26:26.268Z,19.12
2022-09-05T18:29:19.890Z,19.03
2022-09-05T18:31:51.702Z,18.96
2022-09-05T18:34:19.625Z,18.88
2022-09-05T18:39:52.440Z,18.74
2022-09-05T18:42:34.221Z,18.70
2022-09-05T18:45:14.819Z,18.66
2022-09-05T18:47:59.333Z,18.61
2022-09-05T18:53:33.507Z,18.54
2022-09-05T18:56:19.942Z,18.52
2022-09-05T18:59:18.999Z,18.53
2022-09-05T19:02:40.375Z,18.46
2022-09-05T19:05:34.732Z,18.46
2022-09-05T19:08:32.054Z,18.45
2022-09-05T19:11:27.937Z,18.43
2022-09-05T19:14:25.481Z,18.38
2022-09-05T19:16:48.414Z,18.33
2022-09-05T19:19:30.575Z,18.31
2022-09-05T19:23:08.668Z,18.32
2022-09-05T19:25:26.337Z,18.31
2022-09-05T19:36:43.993Z,18.26
2022-09-05T19:36:57.862Z,18.26
2022-09-05T19:37:23.714Z,18.21
2022-09-05T19:37:44.731Z,18.13
2022-09-05T19:47:10.952Z,18.09
2022-09-05T19:47:39.303Z,17.99
2022-09-05T19:47:43.283Z,18.02
2022-09-05T19:49:17.249Z,17.95
2022-09-05T19:51:50.576Z,17.90
2022-09-05T19:54:26.055Z,17.80
2022-09-05T19:57:16.566Z,17.76
2022-09-05T19:59:45.620Z,17.72
2022-09-05T20:02:26.152Z,17.69
2022-09-05T20:04:59.314Z,17.66
2022-09-05T20:07:31.654Z,17.64
2022-09-05T20:10:02.292Z,17.62
2022-09-05T20:12:42.854Z,17.56
2022-09-05T20:15:24.834Z,17.52
2022-09-05T20:18:00.702Z,17.45
2022-09-05T20:21:03.974Z,17.34
2022-09-05T20:23:31.956Z,17.23
2022-09-05T20:26:04.027Z,17.07
2022-09-05T20:28:37.243Z,16.97
2022-09-05T20:31:11.897Z,16.91
2022-09-05T20:33:42.195Z,16.93
2022-09-05T20:43:11.113Z,16.94
2022-09-05T20:43:24.178Z,16.93
2022-09-05T20:43:36.695Z,16.86
2022-09-05T20:44:51.583Z,16.80
2022-09-05T20:51:33.272Z,16.76
2022-09-05T20:54:16.034Z,16.63
2022-09-05T20:54:23.016Z,16.72
2022-09-05T20:56:24.101Z,16.52
2022-09-05T20:58:56.913Z,16.48
2022-09-05T21:01:26.804Z,16.44
2022-09-05T21:03:57.190Z,16.34
2022-09-05T21:06:35.549Z,16.29
2022-09-05T21:09:25.399Z,16.28
2022-09-05T21:11:55.772Z,16.28
2022-09-05T21:14:28.212Z,16.26
2022-09-05T21:17:14.832Z,16.19
2022-09-05T21:19:58.347Z,16.20
2022-09-05T21:22:43.940Z,16.20
2022-09-05T21:25:17.255Z,16.18
2022-09-05T21:28:01.804Z,16.10
2022-09-05T21:30:40.971Z,16.09
2022-09-05T21:33:18.561Z,16.05
2022-09-05T21:35:50.989Z,16.06
2022-09-05T21:38:32.666Z,16.09
2022-09-05T21:41:01.692Z,16.12
2022-09-05T21:47:35.624Z,16.15
2022-09-05T21:47:47.784Z,16.16
2022-09-05T21:49:22.244Z,16.14
2022-09-05T21:51:52.670Z,16.13
2022-09-05T21:59:15.201Z,16.13
2022-09-05T21:59:24.927Z,16.14
2022-09-05T22:00:14.577Z,16.18
2022-09-05T22:02:49.238Z,16.22
2022-09-05T22:05:25.000Z,16.25
2022-09-05T22:08:02.505Z,16.23
2022-09-05T22:13:20.987Z,16.02
2022-09-05T22:18:47.005Z,15.92
2022-09-05T22:21:32.939Z,15.93
2022-09-05T22:24:09.525Z,15.90
2022-09-05T22:27:12.313Z,15.78
2022-09-05T22:29:39.273Z,15.73
2022-09-05T22:32:16.374Z,15.69
2022-09-05T22:34:55.090Z,15.63
2022-09-05T22:37:22.374Z,15.65
2022-09-05T22:39:52.578Z,15.63
2022-09-05T22:42:22.693Z,15.59
2022-09-05T22:44:56.392Z,15.56
2022-09-05T22:47:29.253Z,15.51
2022-09-05T22:50:03.486Z,15.46
2022-09-05T22:52:30.566Z,15.45
2022-09-05T22:54:57.715Z,15.42
2022-09-05T22:57:24.869Z,15.36
2022-09-05T22:59:52.206Z,15.32
2022-09-05T23:02:19.275Z,15.27
2022-09-05T23:04:53.645Z,15.20
2022-09-05T23:07:20.980Z,15.14
2022-09-05T23:09:48.218Z,15.11
2022-09-05T23:12:15.348Z,15.11
2022-09-05T23:14:44.848Z,15.08
2022-09-05T23:17:14.244Z,15.03
2022-09-05T23:19:41.880Z,14.97
2022-09-05T23:22:09.054Z,14.83
2022-09-05T23:24:38.501Z,14.78
2022-09-05T23:27:05.699Z,14.77
2022-09-05T23:29:33.012Z,14.74
2022-09-05T23:31:59.999Z,14.70
2022-09-05T23:34:32.635Z,14.67
2022-09-05T23:36:59.914Z,14.64
2022-09-05T23:39:28.158Z,14.59
2022-09-05T23:41:55.252Z,14.56
2022-09-05T23:44:22.408Z,14.52
2022-09-05T23:46:50.124Z,14.48
2022-09-05T23:49:18.035Z,14.45
2022-09-05T23:51:45.830Z,14.44
2022-09-05T23:54:16.116Z,14.45
2022-09-05T23:56:44.214Z,14.42
2022-09-05T23:59:11.566Z,14.39
